Tiempo atmosférico en la estación meteorológica de Villarrobledo, Albacete (718 m.)



Fecha
DESCASC
Temp. máxima en grados centígrados (hora)
DESCASC
Temp. mínima en grados centígrados (hora)
DESCASC
Temp. media en grados centígrados
DESCASC
Racha de viento máxima en m/sg (hora)
DESCASC
Velocidad máxima media en intervalos de 10 minutos(hora)
DESCASC
Precipitaciones diarias en mm
DESCASC
Precipitaciones de 00:00 a 06:00 en mm
DESCASC
Precipitaciones de 06:00 a 12:00 en mm
DESCASC
Precipitaciones de 12:00 a 18:00 en mm
DESCASC
Precipitaciones de 18:00 a 24:00 en mm
DESCASC
16-01-2020 17.6 (12:50) 0.5 (08:30) 9.1 6.67 (15:10) 4.17 (23:20) 0 0 0 0 0
15-01-2020 13.9 (14:20) -1.4 (07:10) 6.2 10.56 (14:30) 6.39 (14:30) 0 0 0 0 0
14-01-2020 10.8 (15:10) -4.5 (07:00) 3.2 7.5 (16:20) 4.72 (17:10) 0 0 0 0 0
13-01-2020 11.1 (15:20) -5.2 (08:30) 3 8.06 (15:30) 5.83 (15:40) 0 0 0 0 0
12-01-2020 11.6 (15:30) -3.9 (-00:0) 3.9 6.39 (14:40) 4.17 (14:40) 0 0 0 0 0
11-01-2020 14.4 (14:30) -4 (-00:0) 5.2 3.61 (15:30) 2.22 (17:40) 0 0 0 0 0
10-01-2020 14.4 (15:10) 1.3 (00:00) 7.8 10 (13:20) 4.72 (16:00) 0 0 0 0 0
09-01-2020 15.3 (14:50) 1.6 (00:00) 8.5 7.5 (17:00) 5.28 (17:10) 0 0 0 0 0
08-01-2020 14.3 (13:10) -0.7 (-00:0) 6.8 6.67 (14:50) 3.33 (18:50) 0 0 0 0 0
07-01-2020 13.5 (15:30) -2.4 (-00:0) 5.5 6.39 (15:40) 4.72 (15:40) 0 0 0 0 0
06-01-2020 15.6 (13:40) -1.4 (-00:0) 7.1 4.44 (14:50) 3.06 (15:20) 0 0 0 0 0
05-01-2020 16 (15:50) -2.7 (-00:0) 6.6 3.06 (12:30) 1.39 (12:40) 0 0 0 0 0
04-01-2020 11.6 (15:30) 0.8 (00:00) 6.2 7.5 (15:50) 4.72 (14:20) 0 0 0 0 0
03-01-2020 6.1 (15:30) -2 (-00:0) 2 5 (16:10) 3.61 (13:10) 0 0 0 0 0
02-01-2020 16 (14:30) -3.5 (-00:0) 6.3 3.33 (17:00) 2.22 (17:00) 0.4 0.2 0.2 0 0
01-01-2020 7 (15:30) -1.3 (-00:0) 2.9 3.33 (16:10) 2.22 (16:10) 0.2 0 0.2 0 0
31-12-2019 8.3 (16:50) -1.4 (-00:0) 3.5 6.67 (12:10) 4.44 (12:20) 0.2 0 0.2 0 0
30-12-2019 -- (--) -- (--) -- -- (--) -- (--) 0.4 0.2 0.2 0 0
29-12-2019 10.5 (16:50) -0.1 (00:00) 5.2 8.06 (12:40) 5 (12:40) 0.2 0.2 0 0 0
28-12-2019 17.8 (15:30) -1.4 (-00:0) 8.2 5 (23:50) 3.33 (23:59) 0 0 0 0 0
27-12-2019 16.2 (15:30) 2.3 (00:00) 9.3 6.94 (11:30) 4.44 (11:10) 0.2 0 0.2 0 0
26-12-2019 13.7 (15:10) 3.5 (00:00) 8.6 3.89 (13:30) 2.78 (13:30) 0 0 0 0 0
25-12-2019 19 (14:30) 1 (00:00) 10 4.17 (16:30) 3.06 (16:30) 0.2 0 0.2 0 0
24-12-2019 19.9 (15:40) 1.1 (00:00) 10.5 2.78 (13:10) 1.67 (13:30) 0 0 0 0 0
23-12-2019 14.5 (15:50) 4.7 (00:00) 9.6 12.5 (00:10) 7.78 (00:10) 0 0 0 0 0
22-12-2019 13.4 (15:10) 8.9 (00:00) 11.1 19.17 (01:50) 11.39 (00:50) 0 0 0 0 0
21-12-2019 15.6 (10:40) 10.2 (00:00) 12.9 22.78 (18:30) 13.33 (21:30) 9 6.6 1.4 1 0

Gráficas

Temp. máximas Temp. mínimas Temp. medias Precipitaciones Rachas de viento máximas Velocidades máximas media en intervalos de 10 minutos

Datos horarios

Fecha y hora oficial Temperatura (ºC) Velocidad del viento (km/h) Dirección del viento Racha (km/h) Dirección de racha Precipitación (mm) Presión (hPa) Tendencia (hPa) Humedad (%)
2020-01-19 23:00:00 1.7 5 Norte 17 Norte 0 -- -- 91
2020-01-19 22:00:00 1.5 9 Norte 22 Norte 0 -- -- 93
2020-01-19 21:00:00 1.5 10 Norte 26 Norte 1 -- -- 93
2020-01-19 20:00:00 1.8 8 Norte 38 Nordeste 1.4 -- -- 92
2020-01-19 19:00:00 2.6 22 Nordeste 40 Nordeste 1.6 -- -- 90
2020-01-19 18:00:00 1.7 3 Norte 10 Norte 3.4 -- -- 93
2020-01-19 17:00:00 2.3 6 Nordeste 19 Norte 2.4 -- -- 91
2020-01-19 16:00:00 3.7 10 Nordeste 22 Norte 2.6 -- -- 91
2020-01-19 15:00:00 4.4 11 Nordeste 25 Nordeste 2.4 -- -- 89
2020-01-19 14:00:00 5.5 10 Norte 29 Norte 0.6 -- -- 85
2020-01-19 13:00:00 7.2 13 Norte 26 Noroeste 0 -- -- 75
2020-01-19 12:00:00 7.7 13 Noroeste 26 Oeste 0 -- -- 73
2020-01-19 11:00:00 5.7 13 Noroeste 23 Oeste 0 -- -- 83
2020-01-19 10:00:00 3.7 11 Noroeste 18 Oeste 0 -- -- 90
2020-01-19 09:00:00 2.7 12 Oeste 18 Oeste 0 -- -- 92
2020-01-19 08:00:00 3 11 Oeste 19 Noroeste 0 -- -- 91
2020-01-19 07:00:00 4.1 12 Oeste 23 Noroeste 0 -- -- 89
2020-01-19 06:00:00 5.2 10 Oeste 22 Oeste 0 -- -- 89
2020-01-19 05:00:00 5.5 14 Oeste 24 Oeste 0 -- -- 89
2020-01-19 04:00:00 5 5 Sudoeste 26 Noroeste 0.2 -- -- 90
2020-01-19 03:00:00 5.6 17 Noroeste 37 Noroeste 0.6 -- -- 90
2020-01-19 02:00:00 6.7 14 Sudoeste 37 Oeste 0.6 -- -- 93
2020-01-19 01:00:00 6.5 23 Sudoeste 63 Oeste 3.8 -- -- 95
2020-01-19 00:00:00 8.7 21 Sudoeste 35 Oeste 1 -- -- 88
2020-01-18 23:00:00 9.3 15 Sudoeste 32 Oeste 0 -- -- 90
2020-01-18 22:00:00 9.9 22 Oeste 35 Sudoeste 0 -- -- 88
2020-01-18 21:00:00 9.9 20 Sudoeste 33 Sudoeste 0 -- -- 87
2020-01-18 20:00:00 9.4 23 Sudoeste 35 Sudoeste 0 -- -- 86
2020-01-18 19:00:00 9.1 24 Sudoeste 35 Sudoeste 0 -- -- 87
2020-01-18 18:00:00 9.2 21 Sudoeste 37 Sudoeste 0 -- -- 84
2020-01-18 17:00:00 9.8 24 Sudoeste 38 Sudoeste 0 -- -- 81
2020-01-18 16:00:00 10.5 24 Sudoeste 38 Sudoeste 0 -- -- 75
2020-01-18 15:00:00 10.5 24 Sudoeste 37 Sudoeste 0 -- -- 75
2020-01-18 14:00:00 11.3 24 Sudoeste 40 Sudoeste 0 -- -- 69
2020-01-18 13:00:00 10.9 22 Sudoeste 34 Sudoeste 0 -- -- 74
2020-01-18 12:00:00 9.9 11 Sudoeste 23 Sudoeste 0 -- -- 78
2020-01-18 11:00:00 8.2 3 Sur 8 Sur 0 -- -- 88
2020-01-18 10:00:00 6.3 3 Sudoeste 8 Sur 0.2 -- -- 93
2020-01-18 09:00:00 4.5 3 Sudeste 6 Sudeste 0.6 -- -- 91
2020-01-18 08:00:00 4.3 0 Calma 5 Este 0 -- -- 89
2020-01-18 07:00:00 4.3 2 Nordeste 10 Nordeste 0 -- -- 89
2020-01-18 06:00:00 4.2 5 Nordeste 7 Nordeste 0 -- -- 88
2020-01-18 05:00:00 4.4 0 Calma 5 Este 0 -- -- 88
2020-01-18 04:00:00 4.9 2 Sudoeste 6 Sudeste 0 -- -- 87
2020-01-18 03:00:00 5.2 3 Sudeste 12 Sudeste 0 -- -- 85
2020-01-18 02:00:00 5 6 Sudeste 12 Sudeste 0 -- -- 86
2020-01-18 01:00:00 5.1 2 Sudoeste 10 Sudoeste 0 -- -- 87
2020-01-18 00:00:00 5.4 4 Sudoeste 10 Oeste 0 -- -- 85
2020-01-17 23:00:00 4.7 3 Sudoeste 10 Sudoeste 0 -- -- 84
2020-01-17 22:00:00 5.2 2 Sudoeste 6 Sudoeste 0 -- -- 81
2020-01-17 21:00:00 5.4 4 Sudoeste 8 Sudoeste 0 -- -- 77
2020-01-17 20:00:00 6.6 4 Sudoeste 8 Sudoeste 0 -- -- 74
2020-01-17 19:00:00 8.3 5 Noroeste 18 Oeste 0 -- -- 68
2020-01-17 18:00:00 11 13 Oeste 29 Oeste 0 -- -- 57
2020-01-17 17:00:00 12 19 Oeste 32 Oeste 0 -- -- 56
2020-01-17 16:00:00 12.4 23 Oeste 39 Oeste 0 -- -- 54
2020-01-17 15:00:00 12.4 23 Oeste 38 Oeste 0 -- -- 54
2020-01-17 14:00:00 12.3 25 Oeste 39 Sudoeste 0 -- -- 57
2020-01-17 13:00:00 12.5 23 Oeste 49 Oeste 0 -- -- 59
2020-01-17 12:00:00 11.2 26 Oeste 44 Oeste 0 -- -- 66
2020-01-17 11:00:00 10.3 20 Oeste 32 Oeste 0 -- -- 63
2020-01-17 10:00:00 8.3 13 Sudoeste 18 Sudoeste 0 -- -- 62
2020-01-17 09:00:00 7.1 12 Sudoeste 19 Sudoeste 0 -- -- 64
2020-01-17 08:00:00 7.1 8 Sudoeste 23 Sudoeste 0 -- -- 61
2020-01-17 07:00:00 7.2 21 Sudoeste 28 Sudoeste 0 -- -- 60
2020-01-17 06:00:00 7.1 11 Sudoeste 22 Sudoeste 0 -- -- 58
2020-01-17 05:00:00 5.4 13 Sudoeste 19 Sudoeste 0 -- -- 65
2020-01-17 04:00:00 5 11 Sudoeste 16 Sudoeste 0 -- -- 65
2020-01-17 03:00:00 5.2 12 Sudoeste 16 Sudoeste 0 -- -- 62
2020-01-17 02:00:00 5.3 14 Sudoeste 17 Sudoeste 0 -- -- 62
2020-01-17 01:00:00 5 10 Sudoeste 18 Sur 0 -- -- 64
2020-01-17 00:00:00 6.5 9 Sudoeste 23 Sur 0 -- -- 59
2020-01-16 23:00:00 6.9 9 Sudoeste 15 Sudoeste 0 -- -- 58
2020-01-16 22:00:00 6.9 8 Sudoeste 20 Sur 0 -- -- 58
2020-01-16 21:00:00 7.2 11 Sudoeste 17 Sudoeste 0 -- -- 57
2020-01-16 20:00:00 6.5 3 Sudoeste 7 Sudoeste 0 -- -- 62
2020-01-16 19:00:00 8.8 3 Sudoeste 8 Sudoeste 0 -- -- 56
2020-01-16 18:00:00 12.3 6 Sudoeste 21 Sudoeste 0 -- -- 46
2020-01-16 17:00:00 15 13 Sudoeste 24 Sudoeste 0 -- -- 36
2020-01-16 16:00:00 15.2 13 Oeste 24 Sudoeste 0 -- -- 38
2020-01-16 15:00:00 15.9 13 Sudoeste 23 Sudoeste 0 -- -- 42
2020-01-16 14:00:00 15.9 11 Oeste 20 Oeste 0 -- -- 47
2020-01-16 13:00:00 17.4 2 Sudeste 8 Noroeste 0 -- -- 43
2020-01-16 12:00:00 14.5 5 Norte 12 Nordeste 0 -- -- 50
2020-01-16 11:00:00 11.4 5 Nordeste 9 Este 0 -- -- 56
2020-01-16 10:00:00 5.8 5 Nordeste 9 Nordeste 0 -- -- 69
2020-01-16 09:00:00 0.8 5 Nordeste 11 Este 0 -- -- 86
2020-01-16 08:00:00 1.3 5 Nordeste 8 Este 0 -- -- 83
2020-01-16 07:00:00 2.4 3 Este 8 Sudeste 0 -- -- 80
2020-01-16 06:00:00 2.7 3 Este 10 Sudeste 0 -- -- 79
2020-01-16 05:00:00 3.4 2 Sur 8 Sudeste 0 -- -- 79
2020-01-16 04:00:00 4.9 4 Sur 11 Sudeste 0 -- -- 74
2020-01-16 03:00:00 5.7 4 Sur 10 Sudoeste 0 -- -- 72
2020-01-16 02:00:00 6.3 3 Sur 8 Sur 0 -- -- 73
2020-01-16 01:00:00 5.9 3 Sur 6 Sur 0 -- -- 74
2020-01-16 00:00:00 6.6 3 Sur 6 Sudoeste 0 -- -- 72
2020-01-15 23:00:00 7 2 Sur 6 Sudeste 0 -- -- 71
2020-01-15 22:00:00 8.1 3 Sudoeste 9 Sur 0 -- -- 74
2020-01-15 21:00:00 9.1 5 Sudoeste 7 Sudoeste 0 -- -- 70
2020-01-15 20:00:00 9.9 4 Sudoeste 14 Oeste 0 -- -- 67
2020-01-15 19:00:00 10.8 10 Oeste 16 Oeste 0 -- -- 63
2020-01-15 18:00:00 11.2 9 Oeste 23 Oeste 0 -- -- 60
2020-01-15 17:00:00 12.3 17 Oeste 30 Oeste 0 -- -- 54
2020-01-15 16:00:00 13.7 18 Oeste 29 Oeste 0 -- -- 50
2020-01-15 15:00:00 12.7 22 Oeste 38 Sudoeste 0 -- -- 51
2020-01-15 14:00:00 13.5 18 Oeste 31 Sudoeste 0 -- -- 47
2020-01-15 13:00:00 11.2 9 Oeste 19 Oeste 0 -- -- 60
2020-01-15 12:00:00 13 6 Oeste 11 Oeste 0 -- -- 55
2020-01-15 11:00:00 9 3 Nordeste 8 Nordeste 0 -- -- 66
2020-01-15 10:00:00 3 4 Nordeste 8 Nordeste 0 -- -- 83
2020-01-15 09:00:00 0.5 0 Calma 6 Sur 0 -- -- 93
2020-01-15 08:00:00 0.1 2 Sur 6 Sudeste 0 -- -- 94
2020-01-15 07:00:00 -0.8 2 Sudeste 6 Nordeste 0 -- -- 93
2020-01-15 06:00:00 -0.5 4 Nordeste 9 Nordeste 0 -- -- 90
2020-01-15 05:00:00 1.4 0 Calma 9 Sudoeste 0 -- -- 90
2020-01-15 04:00:00 1.3 2 Sur 7 Sur 0 -- -- 88
2020-01-15 03:00:00 0.8 4 Sudoeste 10 Sudoeste 0 -- -- 89
2020-01-15 02:00:00 1 7 Sudoeste 12 Sudoeste 0 -- -- 89
2020-01-15 01:00:00 0.7 3 Sudoeste 10 Sudoeste 0 -- -- 88
2020-01-15 00:00:00 1 3 Sudoeste 10 Sudoeste 0 -- -- 88
2020-01-14 23:00:00 1.3 4 Sudoeste 10 Sudoeste 0 -- -- 87
2020-01-14 22:00:00 1.5 4 Sudoeste 12 Sur 0 -- -- 83
2020-01-14 21:00:00 2.1 3 Sur 8 Sudoeste 0 -- -- 80
2020-01-14 20:00:00 4.6 5 Sudoeste 13 Oeste 0 -- -- 74
2020-01-14 19:00:00 5.4 6 Oeste 17 Oeste 0 -- -- 68
2020-01-14 18:00:00 7.4 11 Oeste 25 Oeste 0 -- -- 59
2020-01-14 17:00:00 9.9 16 Oeste 27 Oeste 0 -- -- 50
2020-01-14 16:00:00 10.5 15 Oeste 26 Sudoeste 0 -- -- 52
2020-01-14 15:00:00 10.7 15 Oeste 24 Oeste 0 -- -- 51
2020-01-14 14:00:00 9.7 16 Oeste 23 Oeste 0 -- -- 56
2020-01-14 13:00:00 9.6 11 Oeste 18 Oeste 0 -- -- 60
2020-01-14 12:00:00 10.2 2 Oeste 8 Noroeste 0 -- -- 56
2020-01-14 11:00:00 8.1 0 Calma 6 Nordeste 0 -- -- 60
2020-01-14 10:00:00 3.1 0 Calma 3 Sur 0 -- -- 77
2020-01-14 09:00:00 -3.1 3 Sudeste 5 Sudeste 0 -- -- 94
2020-01-14 08:00:00 -3.7 0 Calma 6 Nordeste 0 -- -- 93
2020-01-14 07:00:00 -4.5 0 Calma 5 Nordeste 0 -- -- 92
2020-01-14 06:00:00 -3.4 0 Calma 5 Nordeste 0 -- -- 91
2020-01-14 05:00:00 -1.7 2 Oeste 6 Sudoeste 0 -- -- 88
2020-01-14 04:00:00 -1.3 4 Sudoeste 8 Sudoeste 0 -- -- 90
2020-01-14 03:00:00 -1.4 3 Sudoeste 6 Sudoeste 0 -- -- 90
2020-01-14 02:00:00 -0.7 4 Sudoeste 7 Oeste 0 -- -- 88
2020-01-14 01:00:00 -0.3 5 Oeste 8 Sudoeste 0 -- -- 87
2020-01-14 00:00:00 0.1 5 Sudoeste 7 Sudoeste 0 -- -- 84
2020-01-13 23:00:00 0.9 4 Sudoeste 7 Sudoeste 0 -- -- 78
2020-01-13 22:00:00 2 2 Sudoeste 6 Sudoeste 0 -- -- 74
2020-01-13 21:00:00 2.8 3 Sudoeste 8 Sudoeste 0 -- -- 70
2020-01-13 20:00:00 2.7 3 Oeste 8 Sudoeste 0 -- -- 71
2020-01-13 19:00:00 5.5 3 Sudoeste 11 Noroeste 0 -- -- 62
2020-01-13 18:00:00 7.6 8 Oeste 21 Oeste 0 -- -- 56
2020-01-13 17:00:00 9.2 17 Oeste 28 Oeste 0 -- -- 48
2020-01-13 16:00:00 10.4 18 Oeste 29 Oeste 0 -- -- 44
2020-01-13 15:00:00 10.6 15 Oeste 27 Oeste 0 -- -- 45
2020-01-13 14:00:00 9.8 14 Oeste 19 Oeste 0 -- -- 48
2020-01-13 13:00:00 9.2 8 Oeste 14 Oeste 0 -- -- 50
2020-01-13 12:00:00 8.3 3 Oeste 6 Oeste 0 -- -- 51
2020-01-13 11:00:00 7.4 0 Calma 4 Nordeste 0 -- -- 52
2020-01-13 10:00:00 0.9 0 Calma 2 Nordeste 0 -- -- 70
2020-01-13 09:00:00 -4.5 0 Calma 4 Este 0 -- -- 85
2020-01-13 08:00:00 -4.8 0 Calma 4 Sudeste 0 -- -- 87
2020-01-13 07:00:00 -3.9 0 Calma 4 Este 0 -- -- 85
2020-01-13 06:00:00 -4 2 Este 6 Este 0 -- -- 88
2020-01-13 05:00:00 -4 0 Calma 5 Este 0 -- -- 88
2020-01-13 04:00:00 -3.7 0 Calma 6 Sudeste 0 -- -- 85
2020-01-13 03:00:00 -3.4 2 Sudeste 10 Sudeste 0 -- -- 85
2020-01-13 02:00:00 -3.3 2 Sudeste 7 Sudeste 0 -- -- 85
2020-01-13 01:00:00 -3.2 0 Calma 9 Sudeste 0 -- -- 84
2020-01-13 00:00:00 -2.4 0 Calma 4 Sur 0 -- -- 82
2020-01-12 23:00:00 -2 2 Sur 8 Sudeste 0 -- -- 81
2020-01-12 22:00:00 -0.6 6 Sudeste 9 Sur 0 -- -- 75
2020-01-12 21:00:00 0.8 3 Sudoeste 5 Oeste 0 -- -- 72
2020-01-12 20:00:00 2 0 Calma 3 Sur 0 -- -- 72
2020-01-12 19:00:00 4.6 0 Calma 8 Oeste 0 -- -- 62
2020-01-12 18:00:00 8.7 6 Oeste 15 Oeste 0 -- -- 52
2020-01-12 17:00:00 10.8 10 Oeste 22 Oeste 0 -- -- 45
2020-01-12 16:00:00 11.1 14 Oeste 22 Oeste 0 -- -- 41
2020-01-12 15:00:00 11.4 14 Oeste 23 Oeste 0 -- -- 42
2020-01-12 14:00:00 11.1 13 Oeste 20 Oeste 0 -- -- 48
2020-01-12 13:00:00 9.5 11 Oeste 19 Sudoeste 0 -- -- 55
2020-01-12 12:00:00 7 12 Oeste 18 Oeste 0 -- -- 64
2020-01-12 11:00:00 4.9 7 Oeste 9 Oeste 0 -- -- 68
2020-01-12 10:00:00 1.9 0 Calma 4 Sudoeste 0 -- -- 77
2020-01-12 09:00:00 -2.8 3 Sudoeste 4 Oeste 0 -- -- 92
2020-01-12 08:00:00 -3.5 3 Oeste 5 Oeste 0 -- -- 92
2020-01-12 07:00:00 -3.2 3 Sudoeste 6 Sudoeste 0 -- -- 90
2020-01-12 06:00:00 -3.3 3 Sudoeste 6 Oeste 0 -- -- 90
2020-01-12 05:00:00 -3.3 2 Sudoeste 4 Sudoeste 0 -- -- 89
2020-01-12 04:00:00 -3.3 0 Calma 4 Sudoeste 0 -- -- 88
2020-01-12 03:00:00 -2.7 0 Calma 3 Sur 0 -- -- 88
2020-01-12 02:00:00 -2.4 0 Calma 2 Sur 0 -- -- 90
2020-01-12 01:00:00 -2 0 Calma 3 Sur 0 -- -- 85
2020-01-12 00:00:00 -1.2 2 Sudoeste 4 Sudoeste 0 -- -- 84
2020-01-11 23:00:00 0.4 3 Sudoeste 6 Sudoeste 0 -- -- 78
2020-01-11 22:00:00 3 5 Sur 11 Noroeste 0 -- -- 69
2020-01-11 21:00:00 2.8 4 Oeste 6 Oeste 0 -- -- 72
2020-01-11 20:00:00 4.1 5 Oeste 6 Sudoeste 0 -- -- 69
2020-01-11 19:00:00 5.9 3 Sudoeste 8 Oeste 0 -- -- 62
2020-01-11 18:00:00 9.6 6 Oeste 12 Oeste 0 -- -- 50
2020-01-11 17:00:00 12.8 6 Oeste 12 Noroeste 0 -- -- 41
2020-01-11 16:00:00 14.2 4 Noroeste 13 Noroeste 0 -- -- 38
2020-01-11 15:00:00 14.4 4 Norte 12 Noroeste 0 -- -- 40
2020-01-11 14:00:00 13.8 4 Norte 10 Nordeste 0 -- -- 40
2020-01-11 13:00:00 11.3 2 Este 7 Este 0 -- -- 46
2020-01-11 12:00:00 8.6 3 Este 6 Nordeste 0 -- -- 56
2020-01-11 11:00:00 8.3 0 Calma 3 Sudoeste 0 -- -- 55
2020-01-11 10:00:00 2.6 0 Calma 0 Calma 0 -- -- 73
2020-01-11 09:00:00 -3.9 0 Calma 2 Sur 0 -- -- 92
2020-01-11 08:00:00 -3.6 0 Calma 3 Sur 0 -- -- 90
2020-01-11 07:00:00 -3.3 2 Sur 5 Sudeste 0 -- -- 89
2020-01-11 06:00:00 -3 4 Sudoeste 11 Sur 0 -- -- 88
2020-01-11 05:00:00 -2.8 0 Calma 4 Sur 0 -- -- 88
2020-01-11 04:00:00 -1.9 0 Calma 4 Sudeste 0 -- -- 87
2020-01-11 03:00:00 -1.2 2 Sudeste 10 Sudeste 0 -- -- 83
2020-01-11 02:00:00 -0.9 3 Oeste 8 Nordeste 0 -- -- 83
2020-01-11 01:00:00 1.9 8 Nordeste 13 Nordeste 0 -- -- 76
2020-01-11 00:00:00 1.3 3 Oeste 8 Noroeste 0 -- -- 77
2020-01-10 23:00:00 2.1 2 Oeste 6 Norte 0 -- -- 73
2020-01-10 22:00:00 2.6 2 Norte 11 Norte 0 -- -- 71
2020-01-10 21:00:00 4.3 5 Norte 14 Norte 0 -- -- 66
2020-01-10 20:00:00 6.2 6 Norte 14 Nordeste 0 -- -- 59
2020-01-10 19:00:00 8.1 13 Nordeste 22 Nordeste 0 -- -- 52
2020-01-10 18:00:00 10.4 11 Norte 22 Norte 0 -- -- 45
2020-01-10 17:00:00 12.2 14 Norte 24 Norte 0 -- -- 36
2020-01-10 16:00:00 13.5 17 Norte 29 Norte 0 -- -- 36
2020-01-10 15:00:00 14.1 13 Norte 29 Norte 0 -- -- 37
2020-01-10 14:00:00 13.6 13 Norte 36 Norte 0 -- -- 36
2020-01-10 13:00:00 13.1 11 Norte 22 Nordeste 0 -- -- 43
2020-01-10 12:00:00 12.5 6 Norte 12 Noroeste 0 -- -- 51
2020-01-10 11:00:00 8.8 6 Noroeste 12 Noroeste 0 -- -- 64
2020-01-10 10:00:00 3.8 4 Oeste 17 Oeste 0 -- -- 91
2020-01-10 09:00:00 3.1 13 Oeste 21 Oeste 0 -- -- 92
2020-01-10 08:00:00 3.2 10 Oeste 14 Oeste 0 -- -- 92
2020-01-10 07:00:00 2.6 8 Oeste 13 Oeste 0 -- -- 93
2020-01-10 06:00:00 3.6 8 Oeste 15 Sudoeste 0 -- -- 90
2020-01-10 05:00:00 2.4 3 Sudoeste 12 Sudoeste 0 -- -- 93
2020-01-10 04:00:00 2.8 9 Sudoeste 12 Sudoeste 0 -- -- 92
2020-01-10 03:00:00 2.9 3 Oeste 10 Oeste 0 -- -- 89
2020-01-10 02:00:00 4 9 Sudoeste 19 Sudoeste 0 -- -- 87
2020-01-10 01:00:00 4.3 8 Oeste 14 Sudoeste 0 -- -- 87
2020-01-10 00:00:00 4 7 Sudoeste 17 Oeste 0 -- -- 88
2020-01-09 23:00:00 4.7 11 Oeste 16 Oeste 0 -- -- 84
2020-01-09 22:00:00 5.2 9 Oeste 15 Oeste 0 -- -- 81
2020-01-09 21:00:00 3.5 7 Oeste 8 Oeste 0 -- -- 86
2020-01-09 20:00:00 5.4 3 Sudoeste 9 Sudoeste 0 -- -- 77
2020-01-09 19:00:00 6.6 7 Oeste 14 Oeste 0 -- -- 76
2020-01-09 18:00:00 9 10 Oeste 25 Sudoeste 0 -- -- 66
2020-01-09 17:00:00 11.7 17 Oeste 27 Oeste 0 -- -- 54
2020-01-09 16:00:00 12.6 13 Oeste 19 Oeste 0 -- -- 52
2020-01-09 15:00:00 14.7 4 Sudoeste 12 Sudoeste 0 -- -- 50
2020-01-09 14:00:00 13 3 Oeste 11 Nordeste 0 -- -- 60
2020-01-09 13:00:00 9.1 9 Nordeste 15 Nordeste 0 -- -- 92
2020-01-09 12:00:00 5.8 7 Este 18 Este 0 -- -- 97
2020-01-09 11:00:00 4 6 Este 18 Nordeste 0 -- -- 97
2020-01-09 10:00:00 3.7 6 Este 17 Nordeste 0 -- -- 97
2020-01-09 09:00:00 3.4 6 Este 18 Este 0 -- -- 97
2020-01-09 08:00:00 3.3 8 Este 23 Este 0 -- -- 97
2020-01-09 07:00:00 2.7 7 Este 18 Nordeste 0 -- -- 97
2020-01-09 06:00:00 2.1 8 Este 21 Nordeste 0 -- -- 96
2020-01-09 05:00:00 2.6 9 Este 18 Este 0 -- -- 97
2020-01-09 04:00:00 2.1 9 Nordeste 15 Este 0 -- -- 96
2020-01-09 03:00:00 3.3 8 Este 23 Nordeste 0 -- -- 96
2020-01-09 02:00:00 3.9 6 Este 18 Este 0 -- -- 96
2020-01-09 01:00:00 4.1 6 Este 19 Este 0 -- -- 95
2020-01-09 00:00:00 4.5 9 Este 23 Este 0 -- -- 94
2020-01-08 23:00:00 5 6 Este 22 Este 0 -- -- 94
2020-01-08 22:00:00 4.9 6 Este 17 Este 0 -- -- 93
2020-01-08 21:00:00 5.5 4 Este 21 Este 0 -- -- 91
2020-01-08 20:00:00 6.6 9 Este 22 Este 0 -- -- 87
2020-01-08 19:00:00 8.3 12 Este 23 Este 0 -- -- 78
2020-01-08 18:00:00 10.7 8 Este 18 Nordeste 0 -- -- 53
2020-01-08 17:00:00 13 8 Este 21 Este 0 -- -- 45
2020-01-08 16:00:00 13.6 9 Este 23 Nordeste 0 -- -- 45
2020-01-08 15:00:00 13.7 8 Este 24 Este 0 -- -- 42
2020-01-08 14:00:00 13.7 10 Nordeste 17 Nordeste 0 -- -- 41
2020-01-08 13:00:00 13.4 3 Este 8 Oeste 0 -- -- 47
2020-01-08 12:00:00 8.7 6 Oeste 12 Oeste 0 -- -- 67
2020-01-08 11:00:00 5.2 0 Calma 4 Sudeste 0 -- -- 75
2020-01-08 10:00:00 1.6 0 Calma 4 Sudoeste 0 -- -- 83
2020-01-08 09:00:00 0.4 3 Sudoeste 6 Oeste 0 -- -- 90
2020-01-08 08:00:00 -0.3 4 Sudoeste 7 Sudoeste 0 -- -- 86
2020-01-08 07:00:00 0.1 3 Sudoeste 8 Sudoeste 0 -- -- 87
2020-01-08 06:00:00 -0.7 4 Sudoeste 6 Oeste 0 -- -- 89
2020-01-08 05:00:00 0.6 5 Sudoeste 9 Oeste 0 -- -- 86
2020-01-08 04:00:00 -0.3 3 Sudoeste 6 Sudoeste 0 -- -- 86
2020-01-08 03:00:00 0.8 4 Oeste 9 Sudoeste 0 -- -- 84
2020-01-08 02:00:00 1 4 Sudoeste 9 Sudoeste 0 -- -- 82
2020-01-08 01:00:00 2.6 7 Sudoeste 9 Sudoeste 0 -- -- 78
2020-01-08 00:00:00 2.4 5 Sudoeste 8 Sudoeste 0 -- -- 78
2020-01-07 23:00:00 3.4 5 Sudoeste 6 Sudoeste 0 -- -- 77
2020-01-07 22:00:00 3.7 3 Sudoeste 8 Sudoeste 0 -- -- 75
2020-01-07 21:00:00 4.7 4 Sudoeste 10 Sudoeste 0 -- -- 74
2020-01-07 20:00:00 5.6 4 Sudoeste 10 Oeste 0 -- -- 74
2020-01-07 19:00:00 6.9 6 Sudoeste 13 Oeste 0 -- -- 68
2020-01-07 18:00:00 9.8 10 Oeste 17 Sudoeste 0 -- -- 62
2020-01-07 17:00:00 12.7 12 Oeste 21 Oeste 0 -- -- 51
2020-01-07 16:00:00 13.4 15 Oeste 23 Oeste 0 -- -- 45
2020-01-07 15:00:00 13.1 15 Oeste 20 Oeste 0 -- -- 45
2020-01-07 14:00:00 12 10 Oeste 15 Oeste 0 -- -- 51
2020-01-07 13:00:00 9.8 9 Oeste 15 Oeste 0 -- -- 60
2020-01-07 12:00:00 7.7 8 Oeste 13 Oeste 0 -- -- 69
2020-01-07 11:00:00 5.4 8 Oeste 13 Oeste 0 -- -- 78
2020-01-07 10:00:00 2.9 4 Oeste 6 Oeste 0 -- -- 86
2020-01-07 09:00:00 -1.3 4 Sudeste 7 Sudeste 0 -- -- 93
2020-01-07 08:00:00 -1.5 3 Sur 6 Sudoeste 0 -- -- 95
2020-01-07 07:00:00 -2 0 Calma 4 Sur 0 -- -- 94
2020-01-07 06:00:00 -2.1 0 Calma 3 Sudoeste 0 -- -- 91
2020-01-07 05:00:00 -1.1 3 Oeste 8 Sudoeste 0 -- -- 91
2020-01-07 04:00:00 -0.1 0 Calma 5 Sudoeste 0 -- -- 92
2020-01-07 03:00:00 0.3 4 Sudoeste 7 Sudoeste 0 -- -- 89
2020-01-07 02:00:00 0.3 5 Sudoeste 10 Sudoeste 0 -- -- 89
2020-01-07 01:00:00 0.5 3 Sudoeste 9 Sur 0 -- -- 87
2020-01-07 00:00:00 1 3 Sudoeste 6 Sudoeste 0 -- -- 83
2020-01-06 23:00:00 2.6 5 Sudoeste 7 Oeste 0 -- -- 81
2020-01-06 22:00:00 1.6 4 Sudoeste 6 Oeste 0 -- -- 86
2020-01-06 21:00:00 2.9 3 Sudoeste 6 Sur 0 -- -- 80
2020-01-06 20:00:00 4.6 4 Sudoeste 6 Sudoeste 0 -- -- 77
2020-01-06 19:00:00 6.2 4 Sudoeste 9 Sur 0 -- -- 71
2020-01-06 18:00:00 9.3 6 Oeste 13 Oeste 0 -- -- 59
2020-01-06 17:00:00 12.1 8 Oeste 15 Oeste 0 -- -- 52
2020-01-06 16:00:00 12.9 8 Oeste 15 Oeste 0 -- -- 51
2020-01-06 15:00:00 12.9 10 Oeste 16 Sudoeste 0 -- -- 50
2020-01-06 14:00:00 14.7 6 Oeste 10 Oeste 0 -- -- 49
2020-01-06 13:00:00 12.8 4 Este 13 Nordeste 0 -- -- 53
2020-01-06 12:00:00 10.9 7 Nordeste 12 Nordeste 0 -- -- 62
2020-01-06 11:00:00 7.7 6 Este 12 Sudeste 0 -- -- 71
2020-01-06 10:00:00 4 4 Este 12 Este 0 -- -- 82